createdAt,value
2023-04-06T00:00:10.129Z,4.00
2023-04-06T00:02:37.503Z,4.20
2023-04-06T00:05:04.549Z,3.93
2023-04-06T00:07:31.034Z,3.73
2023-04-06T00:09:57.555Z,3.77
2023-04-06T00:12:23.997Z,3.53
2023-04-06T00:14:51.104Z,3.30
2023-04-06T00:17:17.623Z,3.53
2023-04-06T00:19:44.208Z,3.07
2023-04-06T00:22:10.907Z,2.70
2023-04-06T00:24:37.573Z,3.50
2023-04-06T00:27:03.971Z,3.40
2023-04-06T00:29:30.591Z,3.23
2023-04-06T00:31:57.041Z,3.00
2023-04-06T00:34:23.643Z,2.73
2023-04-06T00:36:50.338Z,3.00
2023-04-06T00:39:19.005Z,3.20
2023-04-06T00:41:50.865Z,3.43
2023-04-06T00:44:17.896Z,3.43
2023-04-06T00:46:44.463Z,2.93
2023-04-06T00:49:12.018Z,2.90
2023-04-06T00:51:38.675Z,3.10
2023-04-06T00:54:06.055Z,3.77
2023-04-06T00:56:34.660Z,4.30
2023-04-06T00:59:01.785Z,3.43
2023-04-06T01:01:29.535Z,3.60
2023-04-06T01:04:00.068Z,4.33
2023-04-06T01:06:26.714Z,3.87
2023-04-06T01:08:59.020Z,4.57
2023-04-06T01:11:27.205Z,3.93
2023-04-06T01:13:54.466Z,3.70
2023-04-06T01:16:26.608Z,3.90
2023-04-06T01:19:12.660Z,4.67
2023-04-06T01:21:43.206Z,3.60
2023-04-06T01:24:25.227Z,3.80
2023-04-06T01:27:01.834Z,3.40
2023-04-06T01:29:36.535Z,3.00
2023-04-06T01:32:05.682Z,2.83
2023-04-06T01:34:36.889Z,3.70
2023-04-06T01:37:05.473Z,2.47
2023-04-06T01:39:31.971Z,3.70
2023-04-06T01:42:01.329Z,3.03
2023-04-06T01:44:31.131Z,3.10
2023-04-06T01:47:06.720Z,3.10
2023-04-06T01:49:33.524Z,3.70
2023-04-06T01:52:00.613Z,2.93
2023-04-06T01:54:27.304Z,3.20
2023-04-06T01:57:04.278Z,3.27
2023-04-06T01:59:51.220Z,3.10
2023-04-06T02:02:29.670Z,2.73
2023-04-06T02:05:02.704Z,2.90
2023-04-06T02:07:29.628Z,3.60
2023-04-06T02:09:57.213Z,4.00
2023-04-06T02:12:32.516Z,4.07
2023-04-06T02:14:59.766Z,3.43
2023-04-06T02:17:26.405Z,3.13
2023-04-06T02:19:53.022Z,3.63
2023-04-06T02:22:19.490Z,3.10
2023-04-06T02:24:46.466Z,3.27
2023-04-06T02:27:13.478Z,4.00
2023-04-06T02:29:40.006Z,3.60
2023-04-06T02:32:06.824Z,3.60
2023-04-06T02:34:33.343Z,4.60
2023-04-06T02:37:00.327Z,3.50
2023-04-06T02:39:26.756Z,4.30
2023-04-06T02:41:53.504Z,3.60
2023-04-06T02:44:24.225Z,3.90
2023-04-06T02:46:51.762Z,4.57
2023-04-06T02:49:18.219Z,3.60
2023-04-06T02:51:45.382Z,3.47
2023-04-06T02:54:19.469Z,3.80
2023-04-06T02:56:46.172Z,3.80
2023-04-06T02:59:13.151Z,3.23
2023-04-06T03:01:44.522Z,3.83
2023-04-06T03:04:11.807Z,4.70
2023-04-06T03:06:39.430Z,5.13
2023-04-06T03:09:16.590Z,5.40
2023-04-06T03:11:44.470Z,4.97
2023-04-06T03:14:11.133Z,5.43
2023-04-06T03:16:37.825Z,5.23
2023-04-06T03:19:04.698Z,5.93
2023-04-06T03:21:34.568Z,5.67
2023-04-06T03:24:01.415Z,5.80
2023-04-06T03:26:27.998Z,6.63
2023-04-06T03:28:54.831Z,5.50
2023-04-06T03:31:27.760Z,6.90
2023-04-06T03:34:00.301Z,5.53
2023-04-06T03:36:31.815Z,6.33
2023-04-06T03:38:58.939Z,6.10
2023-04-06T03:41:25.565Z,6.70
2023-04-06T03:43:58.900Z,6.43
2023-04-06T03:46:25.597Z,6.63
2023-04-06T03:48:54.584Z,6.80
2023-04-06T03:51:23.675Z,6.93
2023-04-06T03:53:50.211Z,6.63
2023-04-06T03:56:16.826Z,6.90
2023-04-06T03:58:45.471Z,6.23
2023-04-06T04:01:12.244Z,6.07
2023-04-06T04:03:38.681Z,6.70
2023-04-06T04:06:05.486Z,6.40
2023-04-06T04:08:32.219Z,6.43
2023-04-06T04:10:58.885Z,6.57
2023-04-06T04:13:25.442Z,5.60
2023-04-06T04:15:52.293Z,5.97
2023-04-06T04:18:18.781Z,6.13
2023-04-06T04:20:45.878Z,5.67
2023-04-06T04:23:13.308Z,6.80
2023-04-06T04:25:39.741Z,5.87
2023-04-06T04:28:06.864Z,6.90
2023-04-06T04:30:33.378Z,7.10
2023-04-06T04:33:00.013Z,6.40
2023-04-06T04:35:27.821Z,6.47
2023-04-06T04:37:54.307Z,6.90
2023-04-06T04:40:21.451Z,7.50
2023-04-06T04:42:53.072Z,6.97
2023-04-06T04:45:31.225Z,6.97
2023-04-06T04:48:01.697Z,7.07
2023-04-06T04:50:36.439Z,6.50
2023-04-06T04:53:02.937Z,7.70
2023-04-06T04:55:30.330Z,6.10
2023-04-06T04:57:59.182Z,7.10
2023-04-06T05:00:44.356Z,5.80
2023-04-06T05:03:18.215Z,5.77
2023-04-06T05:05:46.298Z,6.90
2023-04-06T05:08:14.852Z,7.40
2023-04-06T05:10:47.643Z,6.23
2023-04-06T05:13:14.116Z,6.53
2023-04-06T05:15:41.262Z,6.33
2023-04-06T05:18:24.416Z,6.53
2023-04-06T05:20:52.640Z,6.60
2023-04-06T05:23:23.303Z,6.43
2023-04-06T05:25:52.035Z,6.67
2023-04-06T05:28:21.907Z,6.67
2023-04-06T05:30:48.459Z,5.87
2023-04-06T05:33:16.130Z,6.57
2023-04-06T05:35:57.680Z,7.23
2023-04-06T05:38:24.496Z,6.40
2023-04-06T05:40:53.723Z,7.40
2023-04-06T05:43:23.905Z,6.40
2023-04-06T05:45:54.405Z,6.90
2023-04-06T05:48:21.226Z,7.70
2023-04-06T05:50:51.621Z,7.70
2023-04-06T05:53:22.158Z,7.90
2023-04-06T05:55:54.335Z,8.20
2023-04-06T05:58:21.689Z,8.20
2023-04-06T06:00:51.063Z,7.40
2023-04-06T06:03:20.456Z,8.07
2023-04-06T06:05:51.799Z,8.10
2023-04-06T06:08:25.274Z,8.70
2023-04-06T06:10:52.668Z,8.40
2023-04-06T06:13:23.081Z,8.10
2023-04-06T06:15:50.748Z,7.20
2023-04-06T06:18:19.618Z,6.73
2023-04-06T06:20:48.123Z,6.20
2023-04-06T06:23:15.573Z,7.10
2023-04-06T06:25:42.026Z,6.27
2023-04-06T06:28:09.302Z,6.37
2023-04-06T06:30:36.313Z,5.50
2023-04-06T06:33:02.923Z,5.83
2023-04-06T06:35:30.399Z,6.67
2023-04-06T06:37:58.391Z,7.63
2023-04-06T06:40:27.992Z,6.47
2023-04-06T06:42:55.354Z,7.00
2023-04-06T06:45:30.743Z,6.97
2023-04-06T06:47:57.587Z,7.00
2023-04-06T06:50:24.273Z,6.90
2023-04-06T06:52:50.810Z,7.47
2023-04-06T06:55:19.853Z,7.10
2023-04-06T06:57:49.225Z,6.00
2023-04-06T07:00:16.427Z,6.33
2023-04-06T07:02:44.743Z,6.93
2023-04-06T07:05:26.248Z,5.77
2023-04-06T07:07:54.688Z,5.10
2023-04-06T07:10:21.403Z,5.17
2023-04-06T07:12:47.828Z,5.30
2023-04-06T07:15:14.527Z,5.60
2023-04-06T07:17:46.099Z,6.37
2023-04-06T07:20:13.458Z,6.23
2023-04-06T07:22:40.632Z,5.43
2023-04-06T07:25:08.216Z,5.97
2023-04-06T07:27:34.916Z,6.00
2023-04-06T07:30:01.804Z,5.90
2023-04-06T07:32:28.308Z,5.50
2023-04-06T07:34:55.336Z,6.10
2023-04-06T07:37:22.697Z,5.30
2023-04-06T07:39:50.243Z,5.17
2023-04-06T07:42:16.716Z,6.03
2023-04-06T07:44:44.137Z,5.20
2023-04-06T07:47:11.615Z,6.43
2023-04-06T07:49:38.136Z,5.70
2023-04-06T07:52:05.357Z,5.73
2023-04-06T07:54:32.980Z,6.40
2023-04-06T07:56:59.618Z,5.70
2023-04-06T07:59:26.159Z,6.00
2023-04-06T08:01:52.615Z,6.20
2023-04-06T08:04:19.266Z,5.43
2023-04-06T08:06:45.922Z,4.90
2023-04-06T08:09:12.373Z,5.50
2023-04-06T08:11:38.859Z,5.40
2023-04-06T08:14:05.342Z,5.30
2023-04-06T08:16:31.738Z,5.30
2023-04-06T08:18:58.240Z,5.97
2023-04-06T08:21:24.645Z,5.80
2023-04-06T08:23:51.302Z,5.83
2023-04-06T08:26:17.709Z,4.90
2023-04-06T08:28:46.853Z,5.17
2023-04-06T08:31:13.474Z,4.87
2023-04-06T08:33:40.150Z,6.03
2023-04-06T08:36:13.905Z,5.20
2023-04-06T08:38:42.240Z,6.00
2023-04-06T08:41:12.581Z,5.27
2023-04-06T08:43:48.486Z,5.57
2023-04-06T08:46:15.876Z,5.47
2023-04-06T08:48:43.858Z,5.70
2023-04-06T08:51:11.534Z,5.27
2023-04-06T08:53:39.231Z,5.00
2023-04-06T08:56:06.236Z,4.73
2023-04-06T08:58:38.798Z,5.13
2023-04-06T09:01:12.934Z,4.97
2023-04-06T09:03:41.564Z,4.63
2023-04-06T09:06:09.163Z,5.30
2023-04-06T09:08:37.206Z,5.40
2023-04-06T09:11:03.967Z,5.03
2023-04-06T09:13:30.966Z,6.03
2023-04-06T09:16:03.326Z,5.40
2023-04-06T09:18:33.943Z,5.70
2023-04-06T09:21:02.575Z,5.30
2023-04-06T09:23:29.287Z,4.80
2023-04-06T09:26:16.989Z,5.07
2023-04-06T09:28:48.086Z,5.03
2023-04-06T09:31:16.883Z,4.87
2023-04-06T09:33:46.225Z,5.20
2023-04-06T09:36:13.095Z,5.57
2023-04-06T09:38:55.754Z,4.80
2023-04-06T09:41:37.279Z,5.20
2023-04-06T09:44:07.849Z,4.87
2023-04-06T09:46:50.483Z,5.07
2023-04-06T09:49:23.763Z,4.80
2023-04-06T09:51:58.845Z,4.00
2023-04-06T09:54:29.612Z,3.50
2023-04-06T09:57:03.011Z,3.40
2023-04-06T09:59:48.336Z,3.50
2023-04-06T10:02:33.100Z,3.50
2023-04-06T10:05:22.091Z,4.30
2023-04-06T10:08:00.246Z,4.30
2023-04-06T10:10:29.208Z,3.53
2023-04-06T10:12:56.689Z,3.90
2023-04-06T10:15:23.353Z,4.10
2023-04-06T10:17:49.991Z,4.00
2023-04-06T10:20:30.198Z,4.20
2023-04-06T10:23:06.116Z,4.50
2023-04-06T10:25:36.035Z,4.13
2023-04-06T10:28:10.322Z,3.93
2023-04-06T10:30:43.631Z,3.70
2023-04-06T10:33:21.174Z,4.87
2023-04-06T10:35:47.846Z,4.30
2023-04-06T10:38:15.258Z,4.07
2023-04-06T10:40:48.733Z,4.20
2023-04-06T10:43:20.705Z,4.73
2023-04-06T10:45:56.898Z,4.03
2023-04-06T10:48:24.824Z,4.07
2023-04-06T10:50:53.697Z,3.97
2023-04-06T10:53:23.695Z,4.50
2023-04-06T10:55:56.700Z,5.10
2023-04-06T10:58:27.369Z,4.77
2023-04-06T11:00:55.330Z,5.00
2023-04-06T11:03:21.756Z,4.73
2023-04-06T11:05:50.694Z,4.53
2023-04-06T11:08:34.037Z,5.07
2023-04-06T11:11:07.573Z,5.17
2023-04-06T11:13:44.765Z,5.37
2023-04-06T11:16:25.430Z,5.70
2023-04-06T11:18:55.059Z,5.83
2023-04-06T11:21:44.142Z,5.77
2023-04-06T11:24:12.931Z,5.30
2023-04-06T11:26:49.686Z,6.03
2023-04-06T11:29:18.053Z,5.27
2023-04-06T11:31:49.657Z,5.00
2023-04-06T11:34:21.037Z,5.37
2023-04-06T11:36:49.768Z,5.70
2023-04-06T11:39:21.453Z,5.60
2023-04-06T11:41:56.572Z,5.70
2023-04-06T11:44:40.974Z,6.10
2023-04-06T11:47:09.613Z,5.47
2023-04-06T11:49:41.133Z,6.20
2023-04-06T11:52:26.541Z,5.40
2023-04-06T11:54:54.320Z,5.00
2023-04-06T11:57:23.954Z,6.00
2023-04-06T11:59:50.900Z,5.70
2023-04-06T12:02:18.595Z,6.00
2023-04-06T12:04:45.765Z,6.20
2023-04-06T12:07:12.191Z,6.40
2023-04-06T12:09:39.701Z,7.40
2023-04-06T12:12:06.179Z,8.00
2023-04-06T12:14:32.740Z,8.80
2023-04-06T12:16:59.521Z,8.47
2023-04-06T12:19:26.883Z,9.33
2023-04-06T12:21:55.330Z,8.90
2023-04-06T12:24:22.092Z,7.97
2023-04-06T12:26:51.587Z,7.30
2023-04-06T12:29:20.849Z,7.40
2023-04-06T12:31:47.392Z,8.33
2023-04-06T12:34:13.926Z,7.90
2023-04-06T12:36:40.536Z,7.80
2023-04-06T12:39:07.344Z,8.83
2023-04-06T12:41:33.822Z,7.40
2023-04-06T12:44:03.294Z,8.37
2023-04-06T12:46:33.704Z,8.53
2023-04-06T12:49:00.428Z,8.30
2023-04-06T12:51:30.655Z,7.60
2023-04-06T12:53:57.138Z,7.90
2023-04-06T12:56:23.990Z,7.50
2023-04-06T12:58:52.487Z,8.50
2023-04-06T13:01:19.214Z,8.20
2023-04-06T13:03:46.065Z,7.80
2023-04-06T13:06:12.674Z,8.30
2023-04-06T13:08:40.501Z,7.97
2023-04-06T13:11:10.585Z,8.00
2023-04-06T13:13:38.174Z,7.87
2023-04-06T13:16:07.615Z,7.77
2023-04-06T13:18:35.601Z,7.33
2023-04-06T13:21:02.392Z,6.33
2023-04-06T13:23:29.016Z,7.87
2023-04-06T13:26:04.142Z,8.30
2023-04-06T13:28:31.279Z,7.87
2023-04-06T13:31:02.940Z,7.27
2023-04-06T13:33:30.966Z,8.37
2023-04-06T13:35:58.538Z,7.70
2023-04-06T13:38:25.288Z,7.83
2023-04-06T13:40:52.046Z,8.20
2023-04-06T13:43:21.747Z,7.40
2023-04-06T13:45:52.288Z,7.87
2023-04-06T13:48:19.473Z,7.73
2023-04-06T13:50:46.758Z,7.27
2023-04-06T13:53:13.625Z,7.50
2023-04-06T13:55:40.150Z,6.50
2023-04-06T13:58:06.674Z,6.97
2023-04-06T14:00:33.137Z,7.20
2023-04-06T14:02:59.712Z,7.27
2023-04-06T14:05:27.590Z,6.30
2023-04-06T14:07:55.094Z,6.90
2023-04-06T14:10:23.852Z,7.50
2023-04-06T14:12:50.481Z,6.23
2023-04-06T14:15:17.348Z,5.57
2023-04-06T14:17:43.793Z,5.53
2023-04-06T14:20:14.960Z,6.00
2023-04-06T14:22:43.758Z,5.80
2023-04-06T14:25:11.976Z,4.90
2023-04-06T14:27:38.373Z,4.80
2023-04-06T14:30:05.269Z,5.10
2023-04-06T14:32:31.752Z,6.17
2023-04-06T14:34:58.209Z,5.97
2023-04-06T14:37:24.641Z,5.57
2023-04-06T14:39:51.132Z,4.97
2023-04-06T14:42:17.548Z,5.87
2023-04-06T14:44:46.139Z,5.27
2023-04-06T14:47:15.267Z,5.70
2023-04-06T14:49:42.213Z,5.47
2023-04-06T14:52:08.608Z,6.43
2023-04-06T14:54:35.289Z,6.60
2023-04-06T14:57:01.744Z,5.60
2023-04-06T15:02:04.045Z,7.70
2023-04-06T15:04:31.233Z,5.20
2023-04-06T15:06:57.856Z,5.00
2023-04-06T15:09:24.337Z,4.87
2023-04-06T15:11:50.753Z,5.67
2023-04-06T15:14:17.289Z,4.77
2023-04-06T15:16:43.715Z,4.90
2023-04-06T15:19:11.886Z,5.50
2023-04-06T15:21:38.364Z,5.33
2023-04-06T15:24:07.216Z,5.40
2023-04-06T15:26:33.633Z,5.60
2023-04-06T15:29:01.891Z,5.40
2023-04-06T15:31:37.473Z,4.30
2023-04-06T15:34:06.564Z,4.93
2023-04-06T15:36:33.053Z,5.07
2023-04-06T15:38:59.928Z,4.97
2023-04-06T15:41:27.148Z,5.20
2023-04-06T15:43:54.446Z,4.97
2023-04-06T15:46:21.548Z,5.70
2023-04-06T15:48:48.691Z,5.10
2023-04-06T15:51:16.535Z,5.37
2023-04-06T15:53:43.303Z,5.23
2023-04-06T15:56:09.766Z,5.10
2023-04-06T15:58:37.132Z,4.57
2023-04-06T16:01:17.562Z,5.40
2023-04-06T16:03:45.309Z,5.03
2023-04-06T16:06:12.218Z,5.27
2023-04-06T16:08:40.428Z,5.23
2023-04-06T16:11:07.130Z,5.70
2023-04-06T16:13:33.939Z,5.10
2023-04-06T16:16:01.067Z,5.30
2023-04-06T16:18:27.745Z,4.70
2023-04-06T16:20:54.265Z,5.20
2023-04-06T16:23:21.124Z,5.30
2023-04-06T16:25:47.537Z,5.43
2023-04-06T16:28:14.153Z,5.50
2023-04-06T16:30:42.460Z,5.37
2023-04-06T16:33:11.874Z,5.67
2023-04-06T16:35:45.632Z,5.73
2023-04-06T16:38:13.511Z,5.50
2023-04-06T16:40:40.010Z,5.23
2023-04-06T16:43:06.702Z,5.40
2023-04-06T16:45:33.117Z,5.40
2023-04-06T16:47:59.837Z,5.50
2023-04-06T16:50:26.931Z,5.40
2023-04-06T16:52:53.439Z,5.40
2023-04-06T16:55:20.252Z,5.80
2023-04-06T16:57:49.252Z,5.27
2023-04-06T17:00:16.607Z,5.63
2023-04-06T17:02:47.020Z,5.80
2023-04-06T17:05:13.827Z,5.00
2023-04-06T17:07:40.519Z,5.80
2023-04-06T17:10:07.338Z,5.67
2023-04-06T17:12:33.975Z,5.47
2023-04-06T17:15:00.383Z,5.97
2023-04-06T17:17:27.090Z,5.43
2023-04-06T17:19:53.529Z,5.03
2023-04-06T17:22:21.208Z,5.03
2023-04-06T17:24:48.883Z,5.40
2023-04-06T17:27:16.270Z,5.93
2023-04-06T17:29:43.069Z,5.67
2023-04-06T17:32:11.064Z,5.50
2023-04-06T17:34:37.740Z,5.03
2023-04-06T17:37:04.348Z,5.50
2023-04-06T17:39:30.953Z,5.90
2023-04-06T17:41:57.955Z,6.40
2023-04-06T17:44:24.362Z,6.13
2023-04-06T17:46:51.042Z,6.67
2023-04-06T17:49:17.482Z,6.57
2023-04-06T17:51:45.043Z,6.50
2023-04-06T17:54:11.563Z,7.00
2023-04-06T17:56:38.154Z,7.00
2023-04-06T17:59:07.832Z,6.10
2023-04-06T18:01:35.151Z,7.03
2023-04-06T18:04:01.753Z,6.23
2023-04-06T18:06:28.316Z,8.00
2023-04-06T18:08:54.750Z,6.70
2023-04-06T18:11:25.582Z,6.90
2023-04-06T18:13:52.419Z,6.57
2023-04-06T18:16:22.189Z,7.20
2023-04-06T18:18:48.938Z,7.30
2023-04-06T18:21:15.527Z,6.87
2023-04-06T18:23:42.145Z,7.50
2023-04-06T18:26:16.854Z,7.67
2023-04-06T18:28:43.513Z,8.27
2023-04-06T18:31:09.973Z,7.57
2023-04-06T18:33:36.503Z,6.90
2023-04-06T18:36:03.164Z,7.57
2023-04-06T18:38:30.059Z,7.20
2023-04-06T18:40:56.464Z,7.60
2023-04-06T18:43:23.075Z,7.73
2023-04-06T18:45:49.525Z,8.13
2023-04-06T18:48:16.293Z,7.13
2023-04-06T18:50:52.792Z,7.60
2023-04-06T18:53:19.367Z,8.80
2023-04-06T18:55:45.832Z,7.90
2023-04-06T18:58:12.473Z,7.43
2023-04-06T19:00:42.380Z,8.57
2023-04-06T19:03:09.113Z,9.17
2023-04-06T19:05:36.055Z,8.40
2023-04-06T19:08:02.896Z,9.13
2023-04-06T19:10:29.561Z,9.17
2023-04-06T19:12:57.912Z,10.03
2023-04-06T19:15:24.325Z,10.77
2023-04-06T19:17:51.001Z,9.13
2023-04-06T19:20:17.863Z,9.90
2023-04-06T19:22:49.361Z,9.47
2023-04-06T19:25:15.836Z,10.30
2023-04-06T19:27:43.063Z,10.20
2023-04-06T19:30:10.332Z,9.30
2023-04-06T19:32:38.527Z,10.70
2023-04-06T19:35:06.680Z,9.73
2023-04-06T19:37:34.493Z,11.60
2023-04-06T19:40:01.109Z,10.50
2023-04-06T19:42:27.874Z,10.67
2023-04-06T19:44:54.296Z,11.00
2023-04-06T19:47:21.420Z,10.97
2023-04-06T19:49:47.859Z,10.63
2023-04-06T19:52:15.555Z,10.60
2023-04-06T19:54:41.999Z,10.00
2023-04-06T19:57:08.548Z,9.60
2023-04-06T19:59:35.211Z,10.57
2023-04-06T20:02:02.425Z,10.03
2023-04-06T20:04:29.051Z,9.27
2023-04-06T20:06:55.570Z,10.13
2023-04-06T20:09:22.754Z,9.93
2023-04-06T20:11:49.319Z,9.50
2023-04-06T20:14:17.755Z,10.80
2023-04-06T20:16:44.332Z,10.20
2023-04-06T20:19:10.843Z,9.83
2023-04-06T20:21:39.033Z,10.77
2023-04-06T20:24:06.137Z,9.53
2023-04-06T20:26:32.600Z,10.57
2023-04-06T20:28:58.996Z,10.70
2023-04-06T20:31:27.261Z,11.10
2023-04-06T20:33:53.915Z,10.83
2023-04-06T20:36:22.098Z,10.13
2023-04-06T20:38:48.812Z,10.50
2023-04-06T20:41:16.541Z,10.73
2023-04-06T20:43:43.078Z,10.40
2023-04-06T20:46:15.787Z,10.63
2023-04-06T20:48:42.317Z,10.40
2023-04-06T20:51:08.861Z,10.70
2023-04-06T20:53:35.380Z,9.57
2023-04-06T20:56:02.841Z,10.37
2023-04-06T20:58:29.322Z,9.57
2023-04-06T21:00:55.950Z,10.03
2023-04-06T21:03:22.428Z,9.67
2023-04-06T21:05:54.328Z,9.87
2023-04-06T21:08:21.189Z,9.83
2023-04-06T21:10:47.618Z,9.50
2023-04-06T21:13:14.022Z,9.97
2023-04-06T21:15:41.345Z,9.70
2023-04-06T21:18:08.198Z,8.67
2023-04-06T21:20:35.380Z,9.77
2023-04-06T21:23:01.829Z,9.73
2023-04-06T21:25:28.381Z,9.50
2023-04-06T21:27:54.780Z,9.93
2023-04-06T21:30:21.194Z,9.20
2023-04-06T21:32:47.622Z,10.40
2023-04-06T21:35:14.129Z,8.80
2023-04-06T21:37:40.575Z,10.20
2023-04-06T21:40:07.918Z,9.27
2023-04-06T21:42:34.325Z,9.43
2023-04-06T21:45:01.403Z,9.03
2023-04-06T21:47:27.785Z,9.90
2023-04-06T21:49:54.400Z,9.43
2023-04-06T21:52:20.845Z,9.10
2023-04-06T21:54:47.437Z,9.70
2023-04-06T21:57:13.949Z,9.23
2023-04-06T21:59:40.604Z,8.27
2023-04-06T22:02:07.102Z,9.13
2023-04-06T22:04:34.216Z,9.60
2023-04-06T22:07:00.860Z,9.30
2023-04-06T22:09:27.311Z,9.10
2023-04-06T22:11:53.784Z,9.57
2023-04-06T22:14:20.951Z,8.27
2023-04-06T22:16:47.886Z,8.93
2023-04-06T22:19:14.446Z,9.93
2023-04-06T22:21:41.131Z,9.10
2023-04-06T22:24:07.637Z,8.83
2023-04-06T22:26:34.197Z,8.83
2023-04-06T22:29:00.676Z,9.10
2023-04-06T22:31:27.196Z,9.43
2023-04-06T22:33:53.904Z,8.90
2023-04-06T22:36:20.611Z,10.20
2023-04-06T22:38:49.173Z,9.20
2023-04-06T22:41:15.858Z,9.27
2023-04-06T22:43:42.306Z,9.70
2023-04-06T22:46:08.904Z,9.30
2023-04-06T22:48:35.371Z,9.10
2023-04-06T22:51:01.991Z,9.40
2023-04-06T22:53:28.440Z,9.30
2023-04-06T22:55:55.189Z,9.20
2023-04-06T22:58:21.707Z,8.67
2023-04-06T23:00:48.317Z,8.57
2023-04-06T23:03:14.923Z,9.70
2023-04-06T23:05:41.608Z,9.27
2023-04-06T23:08:08.030Z,9.23
2023-04-06T23:10:34.648Z,8.77
2023-04-06T23:13:01.064Z,9.27
2023-04-06T23:15:27.629Z,9.43
2023-04-06T23:17:54.104Z,9.10
2023-04-06T23:20:20.764Z,9.60
2023-04-06T23:22:47.159Z,8.73
2023-04-06T23:25:13.743Z,9.40
2023-04-06T23:27:40.155Z,9.33
2023-04-06T23:30:07.413Z,9.60
2023-04-06T23:32:34.055Z,9.03
2023-04-06T23:35:00.819Z,8.93
2023-04-06T23:37:27.281Z,9.80
2023-04-06T23:39:53.897Z,9.90
2023-04-06T23:42:20.299Z,8.67
2023-04-06T23:44:47.356Z,9.20
2023-04-06T23:47:13.739Z,8.97
2023-04-06T23:49:40.463Z,9.13
2023-04-06T23:52:07.103Z,9.90
2023-04-06T23:54:33.531Z,9.13
2023-04-06T23:57:01.268Z,8.20
2023-04-06T23:59:27.811Z,8.90
